Time;durP1;ratioP1;P1;durP2;ratioP2;P2;SDS_P1;SDS_P2;PMS_P1;PMS_P2;Temp;Humidity;BMP_temperature;BMP_pressure;BME280_temperature;BME280_humidity;BME280_pressure;Samples;Min_cycle;Max_cycle;Signal;HPM_P1;HPM_P2
2024/03/29 01:44:56;;;;;;;9.02;6.90;;;;;;;;;;5037723;28;20200;-77
2024/03/29 01:47:23;;;;;;;10.00;6.72;;;;;;;;;;5039368;28;20208;-77
2024/03/29 01:49:50;;;;;;;8.00;5.60;;;;;;;;;;5038893;28;20317;-76
2024/03/29 01:52:18;;;;;;;12.32;6.75;;;;;;;;;;5039130;28;20230;-76
2024/03/29 01:54:46;;;;;;;11.38;5.35;;;;;;;;;;5039222;28;20733;-77
2024/03/29 01:57:13;;;;;;;9.50;5.80;;;;;;;;;;5039621;28;20762;-77
2024/03/29 01:59:42;;;;;;;8.10;5.35;;;;;;;;;;5039737;28;20221;-77
2024/03/29 02:02:12;;;;;;;4.22;3.25;;;;;;;;;;5061909;28;20192;-75
2024/03/29 02:04:39;;;;;;;4.13;3.50;;;;;;;;;;5062252;28;20204;-75
2024/03/29 02:07:07;;;;;;;3.33;2.53;;;;;;;;;;5063721;28;20208;-78
2024/03/29 02:09:34;;;;;;;3.70;3.47;;;;;;;;;;5062437;28;20206;-77
2024/03/29 02:12:01;;;;;;;8.70;4.65;;;;;;;;;;5062331;28;20223;-77
2024/03/29 02:14:29;;;;;;;5.18;2.95;;;;;;;;;;5062578;28;20612;-77
2024/03/29 02:16:56;;;;;;;3.10;2.90;;;;;;;;;;5062259;28;20623;-77
2024/03/29 02:19:25;;;;;;;5.60;5.00;;;;;;;;;;5062152;28;20234;-76
2024/03/29 02:21:55;;;;;;;4.95;4.05;;;;;;;;;;5052267;28;20717;-75
2024/03/29 02:24:24;;;;;;;4.20;3.60;;;;;;;;;;5065728;28;20840;-75
2024/03/29 02:26:51;;;;;;;6.32;4.28;;;;;;;;;;5068091;28;20587;-75
2024/03/29 02:29:18;;;;;;;4.32;3.28;;;;;;;;;;5063737;28;20206;-76
2024/03/29 02:31:46;;;;;;;6.53;3.80;;;;;;;;;;5062415;28;20674;-75
2024/03/29 02:34:13;;;;;;;3.50;3.20;;;;;;;;;;5066891;28;20207;-77
2024/03/29 02:36:41;;;;;;;4.90;2.92;;;;;;;;;;5059952;28;20234;-77
2024/03/29 02:39:08;;;;;;;5.15;2.90;;;;;;;;;;5062016;28;20196;-77
2024/03/29 02:41:36;;;;;;;3.28;2.97;;;;;;;;;;5068342;28;20215;-77
2024/03/29 02:44:03;;;;;;;2.72;2.53;;;;;;;;;;5069935;28;20366;-77
2024/03/29 02:46:30;;;;;;;4.40;3.42;;;;;;;;;;5072754;28;20196;-76
2024/03/29 02:48:57;;;;;;;3.38;2.92;;;;;;;;;;5069113;28;20813;-76
2024/03/29 02:51:24;;;;;;;4.82;4.07;;;;;;;;;;5062223;28;20256;-76
2024/03/29 02:53:50;;;;;;;4.68;2.97;;;;;;;;;;5062373;28;20196;-75
2024/03/29 02:56:21;;;;;;;6.20;2.90;;;;;;;;;;5061334;28;20223;-75
2024/03/29 02:58:49;;;;;;;5.35;3.60;;;;;;;;;;5061635;28;20204;-76
2024/03/29 03:01:16;;;;;;;5.50;3.50;;;;;;;;;;5061425;28;20246;-76
2024/03/29 03:03:42;;;;;;;5.30;3.83;;;;;;;;;;5064187;28;20192;-77
2024/03/29 03:06:09;;;;;;;7.88;3.00;;;;;;;;;;5061279;28;20212;-75
2024/03/29 03:11:21;;;;;;;3.20;2.90;;;;;;;;;;5062376;28;20196;-77
2024/03/29 03:13:50;;;;;;;7.78;3.10;;;;;;;;;;5061254;28;20204;-77
2024/03/29 03:16:17;;;;;;;5.13;3.08;;;;;;;;;;5061821;28;20212;-78
2024/03/29 03:18:43;;;;;;;3.45;2.45;;;;;;;;;;5060382;28;20203;-77
2024/03/29 03:21:10;;;;;;;2.35;2.15;;;;;;;;;;5070750;28;20223;-77
2024/03/29 03:23:37;;;;;;;2.38;2.28;;;;;;;;;;5060531;28;20195;-77
2024/03/29 03:26:04;;;;;;;3.33;2.40;;;;;;;;;;5061475;28;20284;-76
2024/03/29 03:28:31;;;;;;;2.40;2.20;;;;;;;;;;5063190;28;20206;-76
2024/03/29 03:30:59;;;;;;;3.38;2.50;;;;;;;;;;5066056;28;20200;-76
2024/03/29 03:33:26;;;;;;;5.60;2.40;;;;;;;;;;5063809;28;20200;-76
2024/03/29 03:35:53;;;;;;;3.22;2.42;;;;;;;;;;5060827;28;20828;-76
2024/03/29 03:38:19;;;;;;;2.92;2.58;;;;;;;;;;5062089;28;20362;-76
2024/03/29 03:40:46;;;;;;;5.47;2.63;;;;;;;;;;5068424;28;20219;-76
2024/03/29 03:43:13;;;;;;;5.18;3.15;;;;;;;;;;5067178;28;20203;-76
2024/03/29 03:45:41;;;;;;;5.78;2.53;;;;;;;;;;5059839;28;20208;-76
2024/03/29 03:48:10;;;;;;;2.90;2.60;;;;;;;;;;5060722;28;20210;-76
2024/03/29 03:50:37;;;;;;;4.63;2.50;;;;;;;;;;5060715;28;20876;-76
2024/03/29 03:53:04;;;;;;;2.58;2.38;;;;;;;;;;5061625;28;20196;-76
2024/03/29 03:55:31;;;;;;;4.80;2.60;;;;;;;;;;5058637;28;20212;-76
2024/03/29 03:57:57;;;;;;;4.40;3.15;;;;;;;;;;5060564;28;20203;-76
2024/03/29 04:00:24;;;;;;;2.65;2.45;;;;;;;;;;5059143;28;20235;-76
2024/03/29 04:02:51;;;;;;;4.30;3.10;;;;;;;;;;5060588;28;20751;-76
2024/03/29 04:05:20;;;;;;;6.38;3.50;;;;;;;;;;5065702;28;20662;-76
2024/03/29 04:07:46;;;;;;;4.85;2.60;;;;;;;;;;5065974;28;20333;-77
2024/03/29 04:10:13;;;;;;;2.75;2.55;;;;;;;;;;5056150;28;20273;-76
2024/03/29 04:12:40;;;;;;;3.55;2.67;;;;;;;;;;5059383;28;20264;-76
2024/03/29 04:15:07;;;;;;;4.57;2.50;;;;;;;;;;5069013;28;20708;-76
2024/03/29 04:17:34;;;;;;;7.68;2.13;;;;;;;;;;5065925;28;20234;-76
2024/03/29 04:20:01;;;;;;;3.00;2.15;;;;;;;;;;5059759;28;20199;-76
2024/03/29 04:22:29;;;;;;;3.35;2.72;;;;;;;;;;5048767;28;20208;-76
2024/03/29 04:24:56;;;;;;;3.58;2.22;;;;;;;;;;5073907;28;20215;-77
2024/03/29 04:27:22;;;;;;;2.75;2.08;;;;;;;;;;5066772;28;20260;-77
2024/03/29 04:29:51;;;;;;;5.05;2.53;;;;;;;;;;5061380;28;20214;-76
2024/03/29 04:32:17;;;;;;;2.20;2.10;;;;;;;;;;5061750;28;20371;-76
2024/03/29 04:34:47;;;;;;;2.45;1.98;;;;;;;;;;5059558;28;20208;-75
2024/03/29 04:37:14;;;;;;;4.20;1.98;;;;;;;;;;5059417;28;20860;-76
2024/03/29 04:39:43;;;;;;;2.75;1.70;;;;;;;;;;5060764;28;20206;-77
2024/03/29 04:42:10;;;;;;;3.25;2.60;;;;;;;;;;5059428;28;20237;-76
2024/03/29 04:44:38;;;;;;;5.13;2.70;;;;;;;;;;5059225;28;20206;-76
2024/03/29 04:47:05;;;;;;;2.28;2.00;;;;;;;;;;5062807;28;20667;-76
2024/03/29 04:49:36;;;;;;;2.70;1.65;;;;;;;;;;5059279;28;20368;-76
2024/03/29 04:52:04;;;;;;;1.90;1.70;;;;;;;;;;5059573;28;20211;-77
2024/03/29 04:54:31;;;;;;;2.75;2.55;;;;;;;;;;5059698;28;20416;-76
2024/03/29 04:57:01;;;;;;;3.28;1.70;;;;;;;;;;5060011;28;20204;-77
2024/03/29 04:59:28;;;;;;;3.47;2.13;;;;;;;;;;5062424;28;20589;-75
2024/03/29 05:01:56;;;;;;;2.38;1.90;;;;;;;;;;5059563;28;20710;-76
2024/03/29 05:04:26;;;;;;;3.28;1.70;;;;;;;;;;5059710;28;20204;-76
2024/03/29 05:06:53;;;;;;;2.20;2.10;;;;;;;;;;5059821;28;20206;-75
2024/03/29 05:09:20;;;;;;;1.50;1.35;;;;;;;;;;5064789;28;20259;-76
2024/03/29 05:11:48;;;;;;;4.22;2.13;;;;;;;;;;5059322;28;20199;-76
2024/03/29 05:14:18;;;;;;;1.80;1.70;;;;;;;;;;5059667;28;20758;-76
2024/03/29 05:16:45;;;;;;;2.47;1.95;;;;;;;;;;5060407;28;20363;-76
2024/03/29 05:19:12;;;;;;;14.43;2.67;;;;;;;;;;5059931;28;20218;-76
2024/03/29 05:21:40;;;;;;;2.83;1.67;;;;;;;;;;5072046;28;20234;-76
2024/03/29 05:24:07;;;;;;;1.80;1.70;;;;;;;;;;5059842;28;20793;-77
2024/03/29 05:26:35;;;;;;;1.92;1.70;;;;;;;;;;5063757;28;20644;-76
2024/03/29 05:29:03;;;;;;;4.35;2.00;;;;;;;;;;5074651;28;20207;-76
2024/03/29 05:31:32;;;;;;;2.05;1.75;;;;;;;;;;5063122;28;20255;-76
2024/03/29 05:34:01;;;;;;;4.10;2.75;;;;;;;;;;5067332;28;20205;-77
2024/03/29 05:36:28;;;;;;;2.30;2.10;;;;;;;;;;5065161;28;20265;-76
2024/03/29 05:38:56;;;;;;;5.95;2.53;;;;;;;;;;5069594;28;20205;-76
2024/03/29 05:41:23;;;;;;;4.70;2.33;;;;;;;;;;5065119;28;20879;-76
2024/03/29 05:43:51;;;;;;;3.90;2.50;;;;;;;;;;5063245;28;20207;-76
2024/03/29 05:46:18;;;;;;;4.00;3.03;;;;;;;;;;5057434;28;20192;-76
2024/03/29 05:48:47;;;;;;;5.63;3.03;;;;;;;;;;5071392;28;20215;-76
2024/03/29 05:51:14;;;;;;;3.50;2.78;;;;;;;;;;5068395;28;20188;-76
2024/03/29 05:53:42;;;;;;;3.10;2.80;;;;;;;;;;5075772;28;20196;-77
2024/03/29 05:56:09;;;;;;;2.90;2.60;;;;;;;;;;5069986;28;20187;-76
2024/03/29 05:58:36;;;;;;;2.10;1.92;;;;;;;;;;5063552;28;20200;-76
2024/03/29 06:01:04;;;;;;;3.25;2.20;;;;;;;;;;5062062;28;20235;-77
2024/03/29 06:03:31;;;;;;;3.13;2.83;;;;;;;;;;5070257;28;20199;-76
2024/03/29 06:06:00;;;;;;;3.42;2.53;;;;;;;;;;5060644;28;20216;-76
2024/03/29 06:08:27;;;;;;;5.30;2.78;;;;;;;;;;5062531;28;20200;-77
2024/03/29 06:10:54;;;;;;;5.22;4.82;;;;;;;;;;5064037;28;20200;-76
2024/03/29 06:17:22;;;;;;;10.10;5.43;;;;;;;;;;5062745;28;20234;-76
2024/03/29 06:19:02;;;;;;;5.95;3.15;;;;;;;;;;5055946;28;20207;-76
2024/03/29 06:21:38;;;;;;;3.55;3.03;;;;;;;;;;5062788;28;20223;-77
2024/03/29 06:24:05;;;;;;;8.02;3.70;;;;;;;;;;5062733;28;20793;-76
2024/03/29 06:26:33;;;;;;;4.97;3.40;;;;;;;;;;5063037;28;20208;-77
2024/03/29 06:29:00;;;;;;;4.03;2.75;;;;;;;;;;5063190;28;20200;-76
2024/03/29 06:31:28;;;;;;;2.70;2.13;;;;;;;;;;5062320;28;20199;-76
2024/03/29 06:33:55;;;;;;;2.80;2.60;;;;;;;;;;5066283;28;20210;-77
2024/03/29 06:36:22;;;;;;;3.78;2.80;;;;;;;;;;5064426;28;20583;-77
2024/03/29 06:38:50;;;;;;;3.50;2.20;;;;;;;;;;5061888;28;20586;-77
2024/03/29 06:41:18;;;;;;;4.57;2.35;;;;;;;;;;5062059;28;20879;-76
2024/03/29 06:43:45;;;;;;;4.13;3.10;;;;;;;;;;5062361;28;20733;-76
2024/03/29 06:46:12;;;;;;;2.40;2.30;;;;;;;;;;5067092;28;20203;-76
2024/03/29 06:48:40;;;;;;;4.05;3.30;;;;;;;;;;5072611;28;20212;-76
2024/03/29 06:51:07;;;;;;;9.35;8.35;;;;;;;;;;5060911;28;20260;-76
2024/03/29 06:53:34;;;;;;;8.88;8.10;;;;;;;;;;5063056;28;20201;-76
2024/03/29 06:56:03;;;;;;;10.15;9.30;;;;;;;;;;5061282;28;20245;-76
2024/03/29 06:58:30;;;;;;;10.25;4.75;;;;;;;;;;5063311;28;20732;-79
2024/03/29 07:00:58;;;;;;;4.43;3.55;;;;;;;;;;5058191;28;20241;-77
2024/03/29 07:03:26;;;;;;;5.25;3.50;;;;;;;;;;5057395;28;20203;-78
2024/03/29 07:05:53;;;;;;;4.20;3.80;;;;;;;;;;5073272;28;20217;-78
2024/03/29 07:08:20;;;;;;;3.95;3.55;;;;;;;;;;5066314;28;20208;-78
2024/03/29 07:10:48;;;;;;;5.05;4.10;;;;;;;;;;5064821;28;20196;-78
2024/03/29 07:13:16;;;;;;;7.70;5.68;;;;;;;;;;5062221;28;20195;-78
2024/03/29 07:15:51;;;;;;;6.53;5.97;;;;;;;;;;5061045;28;20211;-77
2024/03/29 07:18:18;;;;;;;13.07;9.80;;;;;;;;;;5061361;28;20210;-76
2024/03/29 07:20:45;;;;;;;11.18;6.65;;;;;;;;;;5063168;28;20204;-78
2024/03/29 07:23:14;;;;;;;11.52;6.07;;;;;;;;;;5063436;28;20219;-77
2024/03/29 07:25:41;;;;;;;9.05;6.65;;;;;;;;;;5061914;28;20208;-76
2024/03/29 07:28:08;;;;;;;4.30;3.90;;;;;;;;;;5061597;28;20218;-78
2024/03/29 07:30:39;;;;;;;6.82;5.30;;;;;;;;;;5063576;28;20246;-77
2024/03/29 07:33:06;;;;;;;6.47;4.93;;;;;;;;;;5062632;28;20698;-77
2024/03/29 07:35:33;;;;;;;7.20;4.88;;;;;;;;;;5060417;28;20839;-77
2024/03/29 07:38:00;;;;;;;4.57;4.07;;;;;;;;;;5060269;28;20210;-77
2024/03/29 07:40:28;;;;;;;4.18;3.92;;;;;;;;;;5062549;28;20208;-77
2024/03/29 07:42:55;;;;;;;8.93;4.95;;;;;;;;;;5067868;28;20873;-77
2024/03/29 07:45:23;;;;;;;4.10;3.70;;;;;;;;;;5061702;28;20219;-76
2024/03/29 07:47:52;;;;;;;26.40;10.27;;;;;;;;;;5069442;28;20221;-75
2024/03/29 07:50:19;;;;;;;6.15;3.83;;;;;;;;;;5053639;28;20208;-76
2024/03/29 07:52:46;;;;;;;6.28;4.00;;;;;;;;;;5060349;28;20866;-76
2024/03/29 07:55:14;;;;;;;6.18;3.05;;;;;;;;;;5056234;28;20207;-76
2024/03/29 07:57:41;;;;;;;5.55;3.72;;;;;;;;;;5054868;28;20829;-75
2024/03/29 08:00:10;;;;;;;4.65;2.70;;;;;;;;;;5065296;28;20232;-76
2024/03/29 08:02:38;;;;;;;7.25;3.03;;;;;;;;;;5053655;28;20450;-76
2024/03/29 08:05:09;;;;;;;4.03;2.78;;;;;;;;;;5057910;28;20264;-76
2024/03/29 08:07:36;;;;;;;2.60;2.33;;;;;;;;;;5059683;28;20244;-76
2024/03/29 08:10:06;;;;;;;3.45;2.00;;;;;;;;;;5069887;28;20801;-76
2024/03/29 08:12:35;;;;;;;4.05;2.53;;;;;;;;;;5057352;28;20188;-76
2024/03/29 08:15:03;;;;;;;3.38;3.05;;;;;;;;;;5063719;28;20204;-76
2024/03/29 08:17:30;;;;;;;4.07;3.67;;;;;;;;;;5051892;28;20202;-76
2024/03/29 08:19:57;;;;;;;8.68;3.80;;;;;;;;;;5056335;28;20203;-75
2024/03/29 08:22:28;;;;;;;3.17;2.90;;;;;;;;;;5059050;28;20219;-75
2024/03/29 08:24:55;;;;;;;5.15;3.85;;;;;;;;;;5051305;28;20200;-75
2024/03/29 08:27:22;;;;;;;5.97;2.90;;;;;;;;;;5067765;28;20794;-76
2024/03/29 08:29:51;;;;;;;6.82;4.50;;;;;;;;;;5063171;28;21006;-75
2024/03/29 08:32:18;;;;;;;11.75;2.95;;;;;;;;;;5067396;28;20199;-77
2024/03/29 08:34:45;;;;;;;8.93;4.15;;;;;;;;;;5061546;28;20204;-76
2024/03/29 08:37:13;;;;;;;3.90;2.55;;;;;;;;;;5059713;28;20204;-80
2024/03/29 08:39:41;;;;;;;4.95;2.50;;;;;;;;;;5060648;28;20208;-78
2024/03/29 08:42:11;;;;;;;2.55;2.35;;;;;;;;;;5070031;28;20226;-78
2024/03/29 08:44:39;;;;;;;4.43;2.60;;;;;;;;;;5062992;28;20598;-79
2024/03/29 08:47:06;;;;;;;5.15;2.55;;;;;;;;;;5060364;28;20204;-78
2024/03/29 08:49:34;;;;;;;3.38;2.92;;;;;;;;;;5060485;28;20207;-78
2024/03/29 08:52:04;;;;;;;4.80;2.72;;;;;;;;;;5059153;28;20200;-77
2024/03/29 08:54:32;;;;;;;3.25;2.60;;;;;;;;;;5069655;28;20762;-78
2024/03/29 08:57:01;;;;;;;3.42;2.70;;;;;;;;;;5043212;28;20192;-77
2024/03/29 08:59:30;;;;;;;5.82;2.70;;;;;;;;;;5065410;28;20673;-78
2024/03/29 09:02:04;;;;;;;4.18;3.10;;;;;;;;;;5059128;28;20267;-77
2024/03/29 09:04:33;;;;;;;4.65;2.60;;;;;;;;;;5059949;28;20203;-76
2024/03/29 09:07:01;;;;;;;2.58;2.38;;;;;;;;;;5066801;28;20204;-76
2024/03/29 09:09:29;;;;;;;2.42;2.05;;;;;;;;;;5061129;28;20261;-76
2024/03/29 09:11:56;;;;;;;1.90;1.80;;;;;;;;;;5054007;28;20222;-76
2024/03/29 09:14:25;;;;;;;3.30;2.38;;;;;;;;;;5062828;28;20192;-78
2024/03/29 09:16:52;;;;;;;2.25;2.00;;;;;;;;;;5064726;28;20195;-76
2024/03/29 09:19:19;;;;;;;2.40;2.20;;;;;;;;;;5067559;28;20199;-76
2024/03/29 09:21:47;;;;;;;3.45;2.00;;;;;;;;;;5069923;28;20780;-77
2024/03/29 09:24:14;;;;;;;3.58;2.13;;;;;;;;;;5066637;28;20280;-76
2024/03/29 09:26:41;;;;;;;2.78;2.38;;;;;;;;;;5060772;28;20293;-78
2024/03/29 09:29:09;;;;;;;4.00;2.30;;;;;;;;;;5060249;28;20274;-76
2024/03/29 09:31:37;;;;;;;2.42;2.13;;;;;;;;;;5063975;28;20208;-77
2024/03/29 09:34:05;;;;;;;5.72;2.22;;;;;;;;;;5064844;28;20724;-77
2024/03/29 09:36:32;;;;;;;2.20;1.98;;;;;;;;;;5057374;28;20254;-77
2024/03/29 09:38:59;;;;;;;1.83;1.70;;;;;;;;;;5056257;28;20192;-77
2024/03/29 09:41:28;;;;;;;5.05;3.28;;;;;;;;;;5052458;28;20206;-75
2024/03/29 09:43:57;;;;;;;3.55;2.35;;;;;;;;;;5061859;28;20763;-76
2024/03/29 09:46:26;;;;;;;7.10;3.08;;;;;;;;;;5066174;28;20757;-75
2024/03/29 09:48:56;;;;;;;2.63;2.35;;;;;;;;;;5069684;28;20220;-75
2024/03/29 09:51:23;;;;;;;2.15;1.95;;;;;;;;;;5066668;28;20738;-77
2024/03/29 09:53:50;;;;;;;2.67;2.43;;;;;;;;;;5074225;28;20208;-76
2024/03/29 09:56:18;;;;;;;2.43;1.70;;;;;;;;;;5071582;28;20633;-77
2024/03/29 09:58:45;;;;;;;3.35;2.63;;;;;;;;;;5086577;28;20636;-78
2024/03/29 10:01:12;;;;;;;3.42;2.60;;;;;;;;;;5087994;28;20775;-78
2024/03/29 10:03:40;;;;;;;3.30;3.00;;;;;;;;;;5074569;28;20231;-77
2024/03/29 10:06:09;;;;;;;3.13;2.83;;;;;;;;;;5076239;28;20624;-77
2024/03/29 10:08:37;;;;;;;4.80;2.40;;;;;;;;;;5063139;28;20277;-77
2024/03/29 10:11:04;;;;;;;2.60;2.03;;;;;;;;;;5066840;28;20620;-76
2024/03/29 10:13:31;;;;;;;2.77;2.57;;;;;;;;;;5066472;28;21173;-78
2024/03/29 10:15:58;;;;;;;4.20;2.77;;;;;;;;;;5068376;28;20652;-78
2024/03/29 10:18:26;;;;;;;2.87;2.50;;;;;;;;;;5066952;28;20618;-78
2024/03/29 10:21:03;;;;;;;3.00;2.80;;;;;;;;;;5071503;28;20629;-77
2024/03/29 10:23:32;;;;;;;4.60;2.70;;;;;;;;;;5073127;28;20665;-77
2024/03/29 10:25:59;;;;;;;6.93;4.70;;;;;;;;;;5088044;28;20621;-78
2024/03/29 10:28:26;;;;;;;2.83;2.63;;;;;;;;;;5073795;28;20626;-78
2024/03/29 10:30:56;;;;;;;3.17;2.90;;;;;;;;;;5071419;28;21195;-78
2024/03/29 10:33:23;;;;;;;5.38;3.40;;;;;;;;;;5070421;28;21168;-79
2024/03/29 10:35:50;;;;;;;4.93;3.07;;;;;;;;;;5072818;28;20314;-78
2024/03/29 10:38:17;;;;;;;2.77;2.67;;;;;;;;;;5071839;28;21164;-79
2024/03/29 10:40:47;;;;;;;2.93;2.63;;;;;;;;;;5060345;28;21217;-78
2024/03/29 10:43:16;;;;;;;3.93;2.50;;;;;;;;;;5060744;28;20728;-77
2024/03/29 10:45:46;;;;;;;2.53;2.20;;;;;;;;;;5076215;28;20621;-78
2024/03/29 10:48:15;;;;;;;3.93;3.33;;;;;;;;;;5065287;28;21177;-78
2024/03/29 10:50:45;;;;;;;5.83;4.43;;;;;;;;;;5060457;28;21183;-77
2024/03/29 10:53:13;;;;;;;3.60;3.30;;;;;;;;;;5066035;28;21240;-78
2024/03/29 10:55:42;;;;;;;4.57;4.17;;;;;;;;;;5074583;28;20614;-77
2024/03/29 10:58:11;;;;;;;7.23;5.57;;;;;;;;;;5066810;28;20732;-78
2024/03/29 11:00:41;;;;;;;3.40;3.10;;;;;;;;;;5070200;28;20661;-79
2024/03/29 11:03:12;;;;;;;11.43;3.40;;;;;;;;;;5075532;28;20626;-78
2024/03/29 11:05:42;;;;;;;5.87;4.80;;;;;;;;;;5070275;28;20690;-77
2024/03/29 11:08:09;;;;;;;3.40;3.20;;;;;;;;;;5069936;28;20627;-79
2024/03/29 11:10:40;;;;;;;4.60;4.20;;;;;;;;;;5074471;28;20625;-79
2024/03/29 11:13:11;;;;;;;4.23;3.30;;;;;;;;;;5074785;28;21199;-79
2024/03/29 11:15:41;;;;;;;4.03;3.23;;;;;;;;;;5065754;28;20665;-79
2024/03/29 11:18:09;;;;;;;3.70;3.50;;;;;;;;;;5066090;28;20615;-78
2024/03/29 11:20:37;;;;;;;4.50;3.53;;;;;;;;;;5065284;28;20644;-78
2024/03/29 11:23:09;;;;;;;4.70;3.10;;;;;;;;;;5070297;28;21148;-77
2024/03/29 11:25:40;;;;;;;5.00;4.60;;;;;;;;;;5065054;28;20621;-77
2024/03/29 11:28:08;;;;;;;6.47;4.43;;;;;;;;;;5070914;28;20698;-78
2024/03/29 11:30:42;;;;;;;4.60;4.20;;;;;;;;;;5076222;28;20622;-81
2024/03/29 11:33:09;;;;;;;4.50;4.17;;;;;;;;;;5079650;28;20629;-77
2024/03/29 11:35:40;;;;;;;4.03;3.80;;;;;;;;;;5072410;28;20678;-79
2024/03/29 11:38:10;;;;;;;4.97;3.73;;;;;;;;;;5069444;28;20609;-78
2024/03/29 11:40:37;;;;;;;3.40;3.20;;;;;;;;;;5068988;28;20616;-77
2024/03/29 11:43:05;;;;;;;2.90;2.57;;;;;;;;;;5072948;28;21351;-76
2024/03/29 11:45:34;;;;;;;3.73;2.57;;;;;;;;;;5070950;28;20688;-76
2024/03/29 11:48:05;;;;;;;3.37;2.90;;;;;;;;;;5072564;28;20622;-76
2024/03/29 11:50:32;;;;;;;3.50;3.20;;;;;;;;;;5069837;28;20618;-75
2024/03/29 11:53:02;;;;;;;3.50;2.83;;;;;;;;;;5069560;28;20616;-75
2024/03/29 11:55:29;;;;;;;2.87;2.67;;;;;;;;;;5069225;28;21208;-77
2024/03/29 11:57:57;;;;;;;4.00;3.33;;;;;;;;;;5069547;28;20618;-76
2024/03/29 12:00:29;;;;;;;3.50;3.20;;;;;;;;;;5069091;28;20661;-77
2024/03/29 12:02:57;;;;;;;4.63;4.23;;;;;;;;;;5069983;28;20611;-76
2024/03/29 12:05:25;;;;;;;5.90;3.10;;;;;;;;;;5068864;28;20729;-77
2024/03/29 12:07:53;;;;;;;4.13;3.07;;;;;;;;;;5069366;28;20599;-77
2024/03/29 12:10:20;;;;;;;8.27;3.50;;;;;;;;;;5069097;28;20634;-78
2024/03/29 12:12:47;;;;;;;5.47;3.30;;;;;;;;;;5068910;28;20674;-77
2024/03/29 12:15:14;;;;;;;4.70;3.83;;;;;;;;;;5069269;28;20626;-77
2024/03/29 12:17:43;;;;;;;11.73;8.70;;;;;;;;;;5069149;28;20626;-77
2024/03/29 12:20:12;;;;;;;11.03;7.73;;;;;;;;;;5069117;28;20634;-77
2024/03/29 12:22:41;;;;;;;6.53;5.53;;;;;;;;;;5068542;28;20671;-77
2024/03/29 12:25:09;;;;;;;34.60;23.97;;;;;;;;;;5068225;28;20758;-77
2024/03/29 12:27:36;;;;;;;23.37;18.73;;;;;;;;;;5068765;28;20648;-77
2024/03/29 12:30:04;;;;;;;9.07;7.93;;;;;;;;;;5068371;28;20650;-77
2024/03/29 12:32:33;;;;;;;6.30;4.83;;;;;;;;;;5068184;28;20667;-77
2024/03/29 12:35:08;;;;;;;4.77;4.37;;;;;;;;;;5068832;28;21166;-77
2024/03/29 12:37:35;;;;;;;4.50;4.10;;;;;;;;;;5068778;28;20678;-77
2024/03/29 12:40:11;;;;;;;3.80;3.50;;;;;;;;;;5068895;28;20630;-76
2024/03/29 12:42:39;;;;;;;3.73;3.43;;;;;;;;;;5067875;28;20617;-76
2024/03/29 12:45:06;;;;;;;3.97;3.57;;;;;;;;;;5068623;28;20664;-76
2024/03/29 12:47:35;;;;;;;6.70;6.00;;;;;;;;;;5068252;28;20647;-76
2024/03/29 12:50:03;;;;;;;8.47;3.27;;;;;;;;;;5070161;28;20753;-76
2024/03/29 12:52:37;;;;;;;3.50;3.10;;;;;;;;;;5067991;28;21209;-76
2024/03/29 12:55:07;;;;;;;7.20;6.60;;;;;;;;;;5068312;28;21263;-76
2024/03/29 12:57:34;;;;;;;7.23;6.40;;;;;;;;;;5068386;28;20628;-76
2024/03/29 13:00:02;;;;;;;4.53;4.07;;;;;;;;;;5067868;28;20650;-76
2024/03/29 13:02:29;;;;;;;5.47;4.97;;;;;;;;;;5068271;28;20618;-77
2024/03/29 13:04:56;;;;;;;5.53;4.67;;;;;;;;;;5068818;28;20677;-77
2024/03/29 13:07:23;;;;;;;4.97;4.53;;;;;;;;;;5060290;28;20622;-77
2024/03/29 13:09:50;;;;;;;4.20;3.90;;;;;;;;;;5068637;28;20649;-77
2024/03/29 13:12:18;;;;;;;4.50;4.20;;;;;;;;;;5068777;28;20630;-76
2024/03/29 13:14:45;;;;;;;3.90;3.60;;;;;;;;;;5067867;28;20655;-76
2024/03/29 13:17:12;;;;;;;3.57;3.27;;;;;;;;;;5068049;28;21168;-77
2024/03/29 13:19:39;;;;;;;4.23;4.00;;;;;;;;;;5068535;28;20601;-76
2024/03/29 13:22:06;;;;;;;4.70;4.07;;;;;;;;;;5068436;28;20626;-76
2024/03/29 13:24:33;;;;;;;5.17;4.17;;;;;;;;;;5068056;28;20669;-76
2024/03/29 13:27:01;;;;;;;5.13;3.63;;;;;;;;;;5068655;28;20633;-76
2024/03/29 13:29:30;;;;;;;5.17;3.33;;;;;;;;;;5068291;28;20634;-77
2024/03/29 13:31:57;;;;;;;7.40;4.77;;;;;;;;;;5064981;28;20605;-77
2024/03/29 13:34:24;;;;;;;8.03;4.20;;;;;;;;;;5068343;28;20622;-75
2024/03/29 13:36:51;;;;;;;6.07;5.27;;;;;;;;;;5068091;28;20604;-76
2024/03/29 13:39:18;;;;;;;5.20;3.20;;;;;;;;;;5068463;28;21165;-76
2024/03/29 13:41:45;;;;;;;3.47;3.10;;;;;;;;;;5073130;28;20648;-76
2024/03/29 13:44:13;;;;;;;6.93;4.30;;;;;;;;;;5083395;28;20624;-77
2024/03/29 13:46:42;;;;;;;4.00;3.60;;;;;;;;;;5083378;28;20621;-76
2024/03/29 13:49:09;;;;;;;4.40;4.00;;;;;;;;;;5076687;28;20607;-76
2024/03/29 13:51:36;;;;;;;3.23;2.97;;;;;;;;;;5074504;28;20596;-75
2024/03/29 13:54:03;;;;;;;3.83;3.17;;;;;;;;;;5059782;28;20667;-77
2024/03/29 13:56:30;;;;;;;4.90;4.43;;;;;;;;;;5068564;28;21143;-76
2024/03/29 13:58:57;;;;;;;3.57;3.30;;;;;;;;;;5072054;28;20622;-76
2024/03/29 14:01:24;;;;;;;3.40;3.20;;;;;;;;;;5070898;28;20683;-77
2024/03/29 14:03:54;;;;;;;3.23;2.80;;;;;;;;;;5071947;28;20690;-76
2024/03/29 14:06:21;;;;;;;5.03;3.37;;;;;;;;;;5071446;28;20665;-77
2024/03/29 14:08:48;;;;;;;2.80;2.60;;;;;;;;;;5072113;28;21252;-76
2024/03/29 14:11:18;;;;;;;3.80;3.50;;;;;;;;;;5071677;28;20621;-77
2024/03/29 14:13:49;;;;;;;4.87;3.63;;;;;;;;;;5071426;28;20622;-76
2024/03/29 14:16:18;;;;;;;5.73;2.90;;;;;;;;;;5071077;28;20616;-76
2024/03/29 14:18:45;;;;;;;5.80;4.57;;;;;;;;;;5071918;28;20678;-77
2024/03/29 14:21:13;;;;;;;3.10;2.90;;;;;;;;;;5071223;28;20624;-77
2024/03/29 14:23:40;;;;;;;3.60;3.33;;;;;;;;;;5071441;28;21199;-78
2024/03/29 14:26:07;;;;;;;5.07;4.60;;;;;;;;;;5071235;28;20670;-78
2024/03/29 14:28:34;;;;;;;3.77;3.47;;;;;;;;;;5071646;28;21184;-78
2024/03/29 14:31:01;;;;;;;4.00;3.60;;;;;;;;;;5072039;28;20628;-78
2024/03/29 14:33:28;;;;;;;7.23;3.10;;;;;;;;;;5071339;28;20655;-78
2024/03/29 14:35:58;;;;;;;3.20;2.83;;;;;;;;;;5071163;28;20640;-78
2024/03/29 14:38:26;;;;;;;4.27;3.33;;;;;;;;;;5071464;28;20610;-78
2024/03/29 14:40:53;;;;;;;4.17;3.77;;;;;;;;;;5070847;28;21000;-78
2024/03/29 14:43:20;;;;;;;4.63;3.43;;;;;;;;;;5070731;28;20618;-78
2024/03/29 14:45:49;;;;;;;4.50;4.20;;;;;;;;;;5070820;28;20676;-78
2024/03/29 14:48:16;;;;;;;5.10;4.00;;;;;;;;;;5072321;28;20629;-79
2024/03/29 14:50:43;;;;;;;4.07;3.73;;;;;;;;;;5079293;28;20650;-77
2024/03/29 14:53:10;;;;;;;4.60;4.23;;;;;;;;;;5070183;28;20622;-78
2024/03/29 14:55:39;;;;;;;8.23;5.10;;;;;;;;;;5071276;28;20598;-79
2024/03/29 14:58:05;;;;;;;6.60;4.97;;;;;;;;;;5070509;28;20741;-78
2024/03/29 15:00:34;;;;;;;6.43;4.87;;;;;;;;;;5070095;28;20636;-78
2024/03/29 15:03:01;;;;;;;5.70;5.17;;;;;;;;;;5070239;28;20666;-77
2024/03/29 15:05:28;;;;;;;9.17;5.70;;;;;;;;;;5074014;28;21246;-79
2024/03/29 15:07:55;;;;;;;6.83;6.13;;;;;;;;;;5087636;28;20878;-77
2024/03/29 15:10:23;;;;;;;6.70;5.80;;;;;;;;;;5076999;28;20634;-78
2024/03/29 15:12:53;;;;;;;6.73;5.43;;;;;;;;;;5081660;28;20634;-78
2024/03/29 15:15:20;;;;;;;7.47;5.67;;;;;;;;;;5058919;28;20617;-77
2024/03/29 15:17:48;;;;;;;6.40;5.60;;;;;;;;;;5070724;28;20625;-79
2024/03/29 15:20:15;;;;;;;4.23;4.03;;;;;;;;;;5066053;28;20617;-78
2024/03/29 15:22:45;;;;;;;6.03;4.20;;;;;;;;;;5074148;28;20652;-77
2024/03/29 15:25:12;;;;;;;4.90;4.40;;;;;;;;;;5074932;28;21388;-78
2024/03/29 15:30:28;;;;;;;4.43;4.03;;;;;;;;;;5075739;28;20655;-78
2024/03/29 15:32:56;;;;;;;4.70;4.40;;;;;;;;;;5079495;28;21183;-79
2024/03/29 15:35:23;;;;;;;6.77;4.43;;;;;;;;;;5077649;28;20628;-77
2024/03/29 15:37:50;;;;;;;3.93;3.63;;;;;;;;;;5075015;28;21223;-77
2024/03/29 15:40:18;;;;;;;4.27;3.97;;;;;;;;;;5066139;28;21043;-77
2024/03/29 15:42:45;;;;;;;4.33;4.10;;;;;;;;;;5069867;28;20614;-76
2024/03/29 15:45:12;;;;;;;5.20;4.63;;;;;;;;;;5069457;28;20680;-78
2024/03/29 15:47:41;;;;;;;4.87;4.07;;;;;;;;;;5069619;28;20618;-77
2024/03/29 15:50:08;;;;;;;4.83;3.97;;;;;;;;;;5068705;28;21249;-78
2024/03/29 15:52:35;;;;;;;2.90;2.70;;;;;;;;;;5069930;28;21062;-79
2024/03/29 15:55:03;;;;;;;3.23;3.03;;;;;;;;;;5069287;28;20634;-78
2024/03/29 15:57:32;;;;;;;3.73;3.43;;;;;;;;;;5069460;28;21182;-78
2024/03/29 16:00:00;;;;;;;4.27;3.93;;;;;;;;;;5081205;28;20669;-77
2024/03/29 16:02:29;;;;;;;7.97;7.27;;;;;;;;;;5069457;28;21261;-78
2024/03/29 16:04:58;;;;;;;5.87;4.70;;;;;;;;;;5069640;28;20679;-76
2024/03/29 16:07:25;;;;;;;4.30;4.00;;;;;;;;;;5061561;28;20661;-77
2024/03/29 16:09:52;;;;;;;4.73;4.43;;;;;;;;;;5069202;28;21002;-77
2024/03/29 16:12:19;;;;;;;11.03;9.93;;;;;;;;;;5069478;28;21183;-78
2024/03/29 16:14:47;;;;;;;8.97;8.17;;;;;;;;;;5069221;28;21255;-78
2024/03/29 16:17:13;;;;;;;9.77;8.93;;;;;;;;;;5069733;28;21006;-78
2024/03/29 16:19:40;;;;;;;7.70;7.10;;;;;;;;;;5068420;28;20683;-78
2024/03/29 16:22:08;;;;;;;8.97;8.07;;;;;;;;;;5068827;28;20622;-76
2024/03/29 16:24:36;;;;;;;10.50;9.27;;;;;;;;;;5069399;28;20621;-79
2024/03/29 16:27:02;;;;;;;10.83;9.73;;;;;;;;;;5069399;28;20668;-78
2024/03/29 16:29:29;;;;;;;10.20;9.30;;;;;;;;;;5069027;28;20632;-77
2024/03/29 16:31:55;;;;;;;9.13;7.57;;;;;;;;;;5068987;28;20625;-78
2024/03/29 16:34:22;;;;;;;9.87;7.20;;;;;;;;;;5068988;28;21381;-77
2024/03/29 16:36:49;;;;;;;8.03;7.23;;;;;;;;;;5069037;28;20619;-78
2024/03/29 16:39:17;;;;;;;7.97;7.33;;;;;;;;;;5069084;28;20692;-77